createdAt,value
2024-03-10T00:00:16.549Z,24.23
2024-03-10T00:05:40.524Z,29.83
2024-03-10T00:11:07.661Z,23.93
2024-03-10T00:16:30.664Z,29.20
2024-03-10T00:21:55.329Z,29.98
2024-03-10T00:27:19.623Z,28.55
2024-03-10T00:32:43.049Z,24.30
2024-03-10T00:38:06.505Z,29.00
2024-03-10T00:43:31.055Z,30.73
2024-03-10T00:48:56.359Z,22.15
2024-03-10T00:54:19.513Z,28.70
2024-03-10T00:59:44.325Z,29.05
2024-03-10T01:05:08.451Z,30.85
2024-03-10T01:10:32.818Z,23.00
2024-03-10T01:15:57.334Z,23.85
2024-03-10T01:21:22.308Z,23.75
2024-03-10T01:26:45.513Z,31.80
2024-03-10T01:32:10.237Z,29.90
2024-03-10T01:42:56.719Z,31.17
2024-03-10T01:48:21.654Z,31.83
2024-03-10T01:53:44.723Z,31.63
2024-03-10T01:59:10.410Z,24.25
2024-03-10T02:04:38.275Z,32.97
2024-03-10T02:10:02.346Z,32.50
2024-03-10T02:15:25.714Z,26.02
2024-03-10T02:20:50.071Z,31.67
2024-03-10T02:26:16.715Z,25.95
2024-03-10T02:31:57.388Z,33.58
2024-03-10T02:37:38.266Z,33.20
2024-03-10T02:43:20.384Z,34.72
2024-03-10T02:48:46.212Z,33.22
2024-03-10T02:54:09.337Z,32.67
2024-03-10T02:59:33.660Z,33.90
2024-03-10T03:04:59.686Z,28.70
2024-03-10T03:10:23.285Z,31.92
2024-03-10T03:15:47.682Z,31.92
2024-03-10T03:21:13.365Z,26.92
2024-03-10T03:26:37.757Z,33.70
2024-03-10T03:32:02.547Z,33.42
2024-03-10T03:42:48.500Z,32.22
2024-03-10T03:48:13.249Z,32.50
2024-03-10T03:53:37.099Z,34.25
2024-03-10T03:59:01.605Z,32.97
2024-03-10T04:09:50.226Z,33.95
2024-03-10T04:15:14.203Z,33.95
2024-03-10T04:20:43.002Z,26.30
2024-03-10T04:26:10.577Z,35.90
2024-03-10T04:31:33.967Z,34.80
2024-03-10T04:36:58.519Z,34.38
2024-03-10T04:42:21.679Z,34.22
2024-03-10T04:47:45.022Z,35.65
2024-03-10T04:53:12.696Z,37.30
2024-03-10T04:58:36.086Z,35.92
2024-03-10T05:04:02.115Z,35.97
2024-03-10T05:09:26.581Z,36.45
2024-03-10T05:14:50.775Z,29.77
2024-03-10T05:20:18.729Z,31.13
2024-03-10T05:25:43.358Z,37.95
2024-03-10T05:31:06.590Z,28.90
2024-03-10T05:36:29.895Z,38.50
2024-03-10T05:41:55.451Z,38.95
2024-03-10T05:47:19.241Z,36.10
2024-03-10T05:52:43.522Z,29.73
2024-03-10T05:58:13.694Z,31.17
2024-03-10T06:03:36.966Z,38.22
2024-03-10T06:09:01.204Z,39.97
2024-03-10T06:14:31.336Z,31.25
2024-03-10T06:20:13.865Z,38.30
2024-03-10T06:25:36.917Z,38.72
2024-03-10T06:31:03.456Z,33.33
2024-03-10T06:36:28.513Z,32.10
2024-03-10T06:41:52.095Z,31.55
2024-03-10T06:47:16.726Z,33.65
2024-03-10T06:52:46.581Z,33.20
2024-03-10T06:58:09.970Z,36.50
2024-03-10T07:03:37.314Z,36.38
2024-03-10T07:09:00.689Z,34.38
2024-03-10T07:14:23.860Z,33.65
2024-03-10T07:19:48.658Z,34.17
2024-03-10T07:30:39.076Z,32.10
2024-03-10T07:36:03.567Z,34.00
2024-03-10T07:41:27.295Z,26.77
2024-03-10T07:46:50.387Z,24.05
2024-03-10T07:52:15.570Z,31.60
2024-03-10T07:57:40.876Z,31.30
2024-03-10T08:03:04.356Z,31.42
2024-03-10T08:08:29.279Z,31.90
2024-03-10T08:13:52.702Z,32.40
2024-03-10T08:19:18.230Z,31.50
2024-03-10T08:24:42.796Z,31.17
2024-03-10T08:30:10.323Z,24.55
2024-03-10T08:35:33.940Z,30.83
2024-03-10T08:41:00.080Z,31.50
2024-03-10T08:46:24.400Z,32.00
2024-03-10T08:51:47.948Z,25.60
2024-03-10T08:57:13.895Z,28.25
2024-03-10T09:02:43.270Z,27.08
2024-03-10T09:08:12.932Z,26.52
2024-03-10T09:13:39.257Z,27.05
2024-03-10T09:19:02.531Z,27.63
2024-03-10T09:24:25.721Z,27.45
2024-03-10T09:29:58.205Z,25.83
2024-03-10T09:35:25.940Z,26.58
2024-03-10T09:40:50.189Z,26.95
2024-03-10T09:46:15.205Z,19.67
2024-03-10T09:51:39.796Z,26.45
2024-03-10T09:57:07.197Z,20.13
2024-03-10T10:02:36.290Z,26.85
2024-03-10T10:07:59.765Z,24.77
2024-03-10T10:13:23.944Z,24.90
2024-03-10T10:18:54.616Z,25.10
2024-03-10T10:24:22.992Z,26.10
2024-03-10T10:29:50.539Z,27.38
2024-03-10T10:35:17.444Z,24.60
2024-03-10T10:40:41.283Z,25.23
2024-03-10T10:46:05.500Z,20.00
2024-03-10T10:51:30.295Z,24.90
2024-03-10T10:56:55.669Z,24.52
2024-03-10T11:02:21.045Z,24.48
2024-03-10T11:07:46.941Z,22.98
2024-03-10T11:13:12.015Z,24.40
2024-03-10T11:18:37.054Z,23.55
2024-03-10T11:24:02.160Z,20.70
2024-03-10T11:29:28.204Z,22.65
2024-03-10T11:34:52.518Z,20.55
2024-03-10T11:40:17.726Z,20.48
2024-03-10T11:45:41.764Z,19.02
2024-03-10T11:51:06.346Z,19.85
2024-03-10T11:56:33.452Z,19.20
2024-03-10T12:01:58.489Z,17.92
2024-03-10T12:07:26.718Z,17.23
2024-03-10T12:12:53.347Z,18.50
2024-03-10T12:18:18.237Z,17.38
2024-03-10T12:23:43.313Z,17.52
2024-03-10T12:29:10.014Z,17.52
2024-03-10T12:34:33.211Z,17.15
2024-03-10T12:39:57.360Z,17.20
2024-03-10T12:45:24.284Z,17.55
2024-03-10T12:50:50.398Z,15.95
2024-03-10T12:56:14.625Z,15.10
2024-03-10T13:07:02.216Z,15.13
2024-03-10T13:12:25.408Z,15.13
2024-03-10T13:17:50.207Z,14.57
2024-03-10T13:23:14.508Z,14.48
2024-03-10T13:34:02.749Z,14.13
2024-03-10T13:39:28.973Z,15.60
2024-03-10T13:44:53.849Z,15.90
2024-03-10T13:50:20.833Z,16.85
2024-03-10T13:55:45.378Z,15.50
2024-03-10T14:01:08.576Z,15.32
2024-03-10T14:06:33.456Z,15.63
2024-03-10T14:11:57.461Z,17.02
2024-03-10T14:17:20.645Z,17.58
2024-03-10T14:22:46.865Z,16.77
2024-03-10T14:28:09.930Z,16.52
2024-03-10T14:33:34.426Z,17.95
2024-03-10T14:38:58.876Z,13.30
2024-03-10T14:44:22.720Z,14.05
2024-03-10T14:49:48.587Z,18.87
2024-03-10T14:55:16.355Z,18.88
2024-03-10T15:00:42.062Z,19.05
2024-03-10T15:06:06.852Z,18.42
2024-03-10T15:16:55.670Z,21.63
2024-03-10T15:22:19.235Z,20.00
2024-03-10T15:27:43.597Z,20.17
2024-03-10T15:33:06.812Z,20.40
2024-03-10T15:38:30.205Z,21.05
2024-03-10T15:43:55.899Z,19.67
2024-03-10T15:49:19.039Z,20.05
2024-03-10T15:54:42.251Z,18.77
2024-03-10T16:00:08.434Z,18.02
2024-03-10T16:05:38.816Z,16.65
2024-03-10T16:11:02.070Z,17.60
2024-03-10T16:16:26.625Z,16.55
2024-03-10T16:21:52.653Z,17.67
2024-03-10T16:27:16.944Z,16.90
2024-03-10T16:32:41.629Z,14.93
2024-03-10T16:38:07.665Z,18.77
2024-03-10T16:43:30.700Z,16.65
2024-03-10T16:48:55.290Z,22.70
2024-03-10T16:54:18.160Z,14.00
2024-03-10T16:59:42.411Z,16.83
2024-03-10T17:05:07.233Z,16.70
2024-03-10T17:10:31.028Z,16.52
2024-03-10T17:15:54.269Z,16.33
2024-03-10T17:21:18.846Z,16.48
2024-03-10T17:26:43.147Z,12.75
2024-03-10T17:32:07.418Z,16.33
2024-03-10T17:37:32.142Z,20.52
2024-03-10T17:48:20.060Z,17.13
2024-03-10T17:53:46.253Z,16.45
2024-03-10T17:59:09.295Z,15.80
2024-03-10T18:04:35.122Z,16.40
2024-03-10T18:10:00.325Z,16.45
2024-03-10T18:15:25.765Z,17.35
2024-03-10T18:20:50.124Z,16.58
2024-03-10T18:26:14.920Z,16.23
2024-03-10T18:37:01.872Z,16.73
2024-03-10T18:42:26.249Z,17.00
2024-03-10T18:47:49.400Z,13.25
2024-03-10T18:53:12.434Z,17.27
2024-03-10T18:58:36.762Z,17.70
2024-03-10T19:04:00.885Z,17.92
2024-03-10T19:09:24.320Z,18.08
2024-03-10T19:14:48.704Z,18.60
2024-03-10T19:20:22.406Z,18.58
2024-03-10T19:25:48.948Z,19.65
2024-03-10T19:31:13.280Z,20.35
2024-03-10T19:36:41.333Z,19.23
2024-03-10T19:42:04.485Z,21.13
2024-03-10T19:47:28.843Z,19.60
2024-03-10T19:52:54.215Z,18.08
2024-03-10T19:58:17.652Z,20.17
2024-03-10T20:03:41.949Z,20.33
2024-03-10T20:09:06.701Z,19.95
2024-03-10T20:19:55.428Z,19.92
2024-03-10T20:25:19.662Z,19.40
2024-03-10T20:30:42.662Z,19.48
2024-03-10T20:36:09.762Z,21.50
2024-03-10T20:41:32.703Z,34.10
2024-03-10T20:46:55.672Z,33.40
2024-03-10T20:52:20.485Z,29.60
2024-03-10T21:03:08.781Z,23.65
2024-03-10T21:08:33.877Z,21.83
2024-03-10T21:13:56.845Z,22.30
2024-03-10T21:19:20.106Z,22.40
2024-03-10T21:24:44.378Z,22.05
2024-03-10T21:30:08.755Z,21.80
2024-03-10T21:35:31.843Z,16.80
2024-03-10T21:40:59.076Z,22.30
2024-03-10T21:46:22.614Z,22.20
2024-03-10T21:51:46.737Z,20.92
2024-03-10T21:57:11.011Z,16.67
2024-03-10T22:02:34.567Z,16.13
2024-03-10T22:07:57.846Z,20.45
2024-03-10T22:13:22.242Z,21.40
2024-03-10T22:18:45.785Z,21.48
2024-03-10T22:24:09.586Z,21.42
2024-03-10T22:29:33.846Z,20.23
2024-03-10T22:34:56.844Z,17.25
2024-03-10T22:40:21.463Z,20.75
2024-03-10T22:45:45.965Z,17.05
2024-03-10T22:51:09.078Z,21.75
2024-03-10T22:56:32.299Z,22.38
2024-03-10T23:01:56.688Z,21.30
2024-03-10T23:07:19.772Z,17.33
2024-03-10T23:12:43.357Z,23.10
2024-03-10T23:18:08.585Z,22.95
2024-03-10T23:23:34.558Z,23.63
2024-03-10T23:28:59.072Z,23.38
2024-03-10T23:34:23.306Z,18.65
2024-03-10T23:39:48.030Z,22.50
2024-03-10T23:50:38.119Z,26.42
2024-03-10T23:56:04.259Z,18.80
